Time;durP1;ratioP1;P1;durP2;ratioP2;P2;SDS_P1;SDS_P2;PMS_P1;PMS_P2;Temp;Humidity;BMP_temperature;BMP_pressure;BME280_temperature;BME280_humidity;BME280_pressure;Samples;Min_cycle;Max_cycle;Signal;HPM_P1;HPM_P2
2022/01/10 00:01:33;;;;;;;8.20;4.13;;;;;;;;;;5032765;28;20040;-64
2022/01/10 00:03:59;;;;;;;5.50;3.20;;;;;;;;;;5032655;28;20287;-67
2022/01/10 00:06:24;;;;;;;5.45;3.50;;;;;;;;;;5032245;28;20032;-64
2022/01/10 00:08:49;;;;;;;6.22;3.65;;;;;;;;;;5032991;28;20022;-65
2022/01/10 00:11:14;;;;;;;4.25;3.20;;;;;;;;;;5029750;28;20049;-66
2022/01/10 00:13:39;;;;;;;5.00;3.30;;;;;;;;;;5033032;28;20018;-66
2022/01/10 00:16:05;;;;;;;6.15;3.40;;;;;;;;;;5032980;28;20032;-66
2022/01/10 00:18:30;;;;;;;5.38;2.78;;;;;;;;;;5031491;28;20044;-65
2022/01/10 00:20:55;;;;;;;6.82;3.67;;;;;;;;;;5032408;28;20306;-65
2022/01/10 00:23:20;;;;;;;7.32;3.40;;;;;;;;;;5028859;28;20104;-65
2022/01/10 00:25:45;;;;;;;4.80;3.40;;;;;;;;;;5018412;28;20026;-65
2022/01/10 00:28:11;;;;;;;6.95;3.78;;;;;;;;;;5032402;28;20075;-66
2022/01/10 00:30:36;;;;;;;4.27;3.17;;;;;;;;;;5032393;28;20494;-65
2022/01/10 00:33:01;;;;;;;6.55;3.65;;;;;;;;;;5031473;28;20535;-65
2022/01/10 00:35:26;;;;;;;3.75;2.88;;;;;;;;;;5032241;28;20478;-65
2022/01/10 00:37:52;;;;;;;5.28;3.60;;;;;;;;;;5015321;28;20034;-66
2022/01/10 00:40:18;;;;;;;5.50;3.00;;;;;;;;;;5029925;28;20458;-66
2022/01/10 00:42:52;;;;;;;4.55;2.90;;;;;;;;;;5031306;28;20272;-65
2022/01/10 00:45:23;;;;;;;6.85;3.60;;;;;;;;;;5031703;28;20529;-65
2022/01/10 00:47:49;;;;;;;5.30;3.50;;;;;;;;;;5032480;28;20778;-66
2022/01/10 00:50:14;;;;;;;5.43;3.30;;;;;;;;;;5032585;28;20486;-66
2022/01/10 00:52:39;;;;;;;5.93;3.35;;;;;;;;;;5032809;28;20128;-66
2022/01/10 00:55:05;;;;;;;7.40;3.55;;;;;;;;;;5030879;28;20502;-66
2022/01/10 00:57:30;;;;;;;4.47;3.30;;;;;;;;;;5032963;28;20483;-66
2022/01/10 00:59:55;;;;;;;8.27;3.90;;;;;;;;;;5031333;28;20025;-67
2022/01/10 01:02:21;;;;;;;5.85;3.42;;;;;;;;;;5031341;28;20063;-66
2022/01/10 01:04:46;;;;;;;6.72;3.42;;;;;;;;;;5031926;28;20053;-66
2022/01/10 01:07:12;;;;;;;7.50;3.63;;;;;;;;;;5048357;28;20475;-66
2022/01/10 01:09:40;;;;;;;6.03;3.50;;;;;;;;;;5034099;28;20029;-66
2022/01/10 01:12:30;;;;;;;5.90;3.70;;;;;;;;;;5024516;28;20029;-66
2022/01/10 01:15:07;;;;;;;6.00;3.85;;;;;;;;;;5017749;28;20034;-66
2022/01/10 01:17:35;;;;;;;5.82;3.25;;;;;;;;;;5015877;28;20025;-66
2022/01/10 01:20:09;;;;;;;5.95;4.38;;;;;;;;;;5025183;28;20033;-66
2022/01/10 01:25:18;;;;;;;6.00;3.78;;;;;;;;;;5041693;28;20032;-66
2022/01/10 01:27:44;;;;;;;6.53;3.77;;;;;;;;;;5014542;28;20026;-66
2022/01/10 01:30:09;;;;;;;6.25;3.67;;;;;;;;;;5030738;28;20080;-66
2022/01/10 01:32:35;;;;;;;6.18;3.50;;;;;;;;;;5031700;28;20053;-66
2022/01/10 01:35:06;;;;;;;6.93;3.80;;;;;;;;;;5031659;28;20389;-66
2022/01/10 01:37:32;;;;;;;6.07;3.42;;;;;;;;;;5031227;28;20025;-66
2022/01/10 01:39:58;;;;;;;6.85;3.55;;;;;;;;;;5043632;28;20059;-66
2022/01/10 01:42:39;;;;;;;6.45;3.40;;;;;;;;;;5027976;28;20087;-66
2022/01/10 01:45:05;;;;;;;5.88;3.70;;;;;;;;;;5014748;28;20041;-66
2022/01/10 01:47:31;;;;;;;8.55;4.18;;;;;;;;;;5030079;28;20037;-66
2022/01/10 01:49:58;;;;;;;8.50;4.25;;;;;;;;;;5031475;28;20025;-66
2022/01/10 01:52:23;;;;;;;6.13;3.38;;;;;;;;;;5014677;28;20551;-66
2022/01/10 01:54:48;;;;;;;4.47;3.40;;;;;;;;;;5013603;28;20128;-66
2022/01/10 01:57:13;;;;;;;10.55;3.60;;;;;;;;;;5031727;28;20045;-66
2022/01/10 01:59:39;;;;;;;5.65;3.22;;;;;;;;;;5030983;28;20030;-66
2022/01/10 02:02:04;;;;;;;7.65;3.72;;;;;;;;;;5031252;28;20030;-65
2022/01/10 02:04:30;;;;;;;6.93;3.67;;;;;;;;;;5031321;28;20390;-65
2022/01/10 02:06:55;;;;;;;6.82;3.72;;;;;;;;;;5031020;28;20052;-65
2022/01/10 02:09:21;;;;;;;4.80;3.05;;;;;;;;;;5031334;28;20029;-65
2022/01/10 02:11:46;;;;;;;6.07;3.50;;;;;;;;;;5027342;28;20029;-65
2022/01/10 02:14:11;;;;;;;7.28;3.65;;;;;;;;;;5028181;28;20394;-66
2022/01/10 02:16:43;;;;;;;5.50;3.40;;;;;;;;;;5022803;28;20014;-66
2022/01/10 02:19:08;;;;;;;9.10;3.63;;;;;;;;;;5027763;28;20426;-66
2022/01/10 02:21:34;;;;;;;6.25;3.50;;;;;;;;;;5031833;28;20048;-66
2022/01/10 02:23:59;;;;;;;6.28;3.67;;;;;;;;;;5030398;28;20017;-66
2022/01/10 02:26:24;;;;;;;7.30;3.63;;;;;;;;;;5029590;28;20087;-66
2022/01/10 02:28:49;;;;;;;8.20;4.72;;;;;;;;;;5024366;28;21171;-66
2022/01/10 02:31:14;;;;;;;7.93;3.35;;;;;;;;;;5030244;28;20474;-65
2022/01/10 02:33:40;;;;;;;5.50;3.33;;;;;;;;;;5030583;28;20049;-65
2022/01/10 02:36:16;;;;;;;8.00;3.67;;;;;;;;;;5030044;28;20026;-65
2022/01/10 02:38:45;;;;;;;7.28;3.53;;;;;;;;;;5031716;28;20025;-65
2022/01/10 02:41:10;;;;;;;10.20;5.00;;;;;;;;;;5027268;28;20124;-65
2022/01/10 02:43:35;;;;;;;5.55;3.28;;;;;;;;;;5003422;28;20341;-66
2022/01/10 02:46:00;;;;;;;6.28;3.53;;;;;;;;;;5025349;28;20036;-66
2022/01/10 02:48:26;;;;;;;6.07;3.47;;;;;;;;;;5031179;28;20033;-65
2022/01/10 02:50:51;;;;;;;6.35;3.40;;;;;;;;;;5029760;28;20028;-65
2022/01/10 02:53:16;;;;;;;5.70;3.28;;;;;;;;;;5030895;28;20409;-66
2022/01/10 02:55:41;;;;;;;5.13;3.00;;;;;;;;;;5029098;28;20032;-65
2022/01/10 02:58:07;;;;;;;9.00;3.75;;;;;;;;;;5013204;28;20025;-65
2022/01/10 03:00:32;;;;;;;6.30;3.47;;;;;;;;;;5034614;28;20041;-65
2022/01/10 03:02:58;;;;;;;8.48;3.50;;;;;;;;;;5031080;28;20025;-65
2022/01/10 03:05:24;;;;;;;6.55;3.50;;;;;;;;;;5030892;28;20057;-65
2022/01/10 03:07:50;;;;;;;6.85;3.40;;;;;;;;;;5030608;28;20079;-65
2022/01/10 03:10:15;;;;;;;6.28;4.22;;;;;;;;;;5029793;28;20033;-66
2022/01/10 03:12:40;;;;;;;6.82;3.88;;;;;;;;;;5025692;28;20048;-66
2022/01/10 03:15:07;;;;;;;8.30;3.80;;;;;;;;;;5029240;28;20048;-66
2022/01/10 03:17:33;;;;;;;5.97;3.47;;;;;;;;;;5030721;28;20014;-66
2022/01/10 03:19:58;;;;;;;7.60;3.67;;;;;;;;;;5030595;28;20021;-66
2022/01/10 03:22:23;;;;;;;8.00;4.35;;;;;;;;;;5029554;28;20026;-65
2022/01/10 03:24:49;;;;;;;5.57;4.18;;;;;;;;;;5030650;28;20113;-66
2022/01/10 03:27:14;;;;;;;9.52;4.97;;;;;;;;;;5031174;28;20110;-66
2022/01/10 03:29:39;;;;;;;8.10;4.25;;;;;;;;;;5029637;28;20030;-66
2022/01/10 03:32:06;;;;;;;7.13;4.40;;;;;;;;;;5034407;28;20034;-66
2022/01/10 03:34:31;;;;;;;6.97;3.50;;;;;;;;;;5033103;28;20028;-66
2022/01/10 03:36:56;;;;;;;6.93;4.72;;;;;;;;;;5030817;28;20381;-66
2022/01/10 03:39:22;;;;;;;8.10;4.32;;;;;;;;;;5033184;28;20021;-66
2022/01/10 03:41:47;;;;;;;8.27;4.38;;;;;;;;;;5023504;28;20045;-66
2022/01/10 03:44:12;;;;;;;10.27;4.85;;;;;;;;;;5032500;28;20029;-66
2022/01/10 03:46:38;;;;;;;7.88;5.00;;;;;;;;;;5032782;28;20030;-66
2022/01/10 03:49:04;;;;;;;7.00;3.75;;;;;;;;;;5033697;28;20030;-66
2022/01/10 03:51:29;;;;;;;5.70;4.05;;;;;;;;;;5032630;28;20112;-66
2022/01/10 03:53:54;;;;;;;5.60;3.67;;;;;;;;;;5033888;28;20029;-66
2022/01/10 03:56:20;;;;;;;8.52;4.43;;;;;;;;;;5032081;28;20040;-66
2022/01/10 03:58:46;;;;;;;7.05;3.92;;;;;;;;;;5024262;28;20517;-67
2022/01/10 04:01:12;;;;;;;6.53;4.63;;;;;;;;;;5032123;28;20026;-66
2022/01/10 04:03:38;;;;;;;8.50;4.35;;;;;;;;;;5033432;28;20024;-66
2022/01/10 04:06:04;;;;;;;7.75;4.88;;;;;;;;;;5033928;28;20013;-66
2022/01/10 04:08:29;;;;;;;7.15;4.38;;;;;;;;;;5033981;28;20091;-66
2022/01/10 04:10:54;;;;;;;6.00;4.53;;;;;;;;;;5028382;28;20048;-66
2022/01/10 04:13:19;;;;;;;8.20;4.88;;;;;;;;;;5033405;28;20024;-66
2022/01/10 04:15:45;;;;;;;9.70;4.97;;;;;;;;;;5032683;28;20028;-66
2022/01/10 04:18:10;;;;;;;9.15;5.10;;;;;;;;;;5032932;28;20527;-66
2022/01/10 04:20:35;;;;;;;8.68;4.50;;;;;;;;;;5031864;28;20478;-66
2022/01/10 04:23:00;;;;;;;8.73;5.23;;;;;;;;;;5032856;28;20381;-66
2022/01/10 04:25:26;;;;;;;9.05;4.93;;;;;;;;;;5036782;28;20489;-66
2022/01/10 04:27:51;;;;;;;7.18;4.78;;;;;;;;;;5032090;28;20029;-66
2022/01/10 04:30:17;;;;;;;9.02;5.03;;;;;;;;;;5033261;28;20378;-66
2022/01/10 04:32:43;;;;;;;11.75;5.38;;;;;;;;;;5032370;28;20033;-67
2022/01/10 04:35:10;;;;;;;7.45;4.65;;;;;;;;;;5031956;28;20021;-66
2022/01/10 04:37:36;;;;;;;9.73;5.13;;;;;;;;;;5033736;28;20025;-66
2022/01/10 04:40:01;;;;;;;10.05;5.20;;;;;;;;;;5032539;28;20492;-66
2022/01/10 04:42:26;;;;;;;10.93;5.18;;;;;;;;;;5011148;28;20022;-67
2022/01/10 04:44:51;;;;;;;10.30;6.20;;;;;;;;;;5032748;28;20022;-66
2022/01/10 04:47:17;;;;;;;14.97;5.77;;;;;;;;;;5032640;28;20029;-66
2022/01/10 04:50:38;;;;;;;9.82;5.60;;;;;;;;;;5032767;28;20532;-66
2022/01/10 04:52:33;;;;;;;11.73;5.23;;;;;;;;;;5030991;28;20063;-66
2022/01/10 04:54:59;;;;;;;7.63;5.45;;;;;;;;;;5032996;28;20120;-66
2022/01/10 04:57:25;;;;;;;8.60;4.80;;;;;;;;;;5033009;28;20032;-66
2022/01/10 04:59:50;;;;;;;10.32;5.18;;;;;;;;;;5032549;28;20057;-66
2022/01/10 05:02:15;;;;;;;8.82;5.32;;;;;;;;;;5032231;28;20467;-65
2022/01/10 05:04:40;;;;;;;9.50;5.35;;;;;;;;;;5014852;28;20025;-66
2022/01/10 05:07:06;;;;;;;10.05;5.55;;;;;;;;;;5031150;28;20401;-66
2022/01/10 05:09:31;;;;;;;10.48;6.05;;;;;;;;;;5047642;28;20378;-66
2022/01/10 05:11:56;;;;;;;10.50;6.15;;;;;;;;;;5011547;28;20030;-66
2022/01/10 05:14:22;;;;;;;10.90;5.57;;;;;;;;;;5030809;28;20036;-66
2022/01/10 05:16:47;;;;;;;10.65;5.35;;;;;;;;;;5014429;28;20037;-66
2022/01/10 05:19:12;;;;;;;8.95;5.60;;;;;;;;;;5032415;28;20029;-66
2022/01/10 05:21:38;;;;;;;11.23;5.72;;;;;;;;;;5031186;28;20408;-66
2022/01/10 05:24:03;;;;;;;9.75;5.78;;;;;;;;;;5030926;28;20423;-66
2022/01/10 05:26:28;;;;;;;10.05;5.65;;;;;;;;;;5034671;28;20017;-66
2022/01/10 05:28:55;;;;;;;10.77;6.03;;;;;;;;;;5032447;28;20022;-65
2022/01/10 05:31:20;;;;;;;7.22;5.10;;;;;;;;;;5031883;28;20048;-66
2022/01/10 05:33:45;;;;;;;8.20;5.07;;;;;;;;;;5030145;28;20474;-66
2022/01/10 05:36:10;;;;;;;9.18;5.30;;;;;;;;;;5028296;28;20029;-66
2022/01/10 05:38:36;;;;;;;10.70;6.35;;;;;;;;;;5043386;28;20052;-66
2022/01/10 05:41:01;;;;;;;8.63;5.47;;;;;;;;;;5024952;28;20378;-66
2022/01/10 05:43:26;;;;;;;11.57;5.43;;;;;;;;;;5029730;28;20021;-67
2022/01/10 05:45:51;;;;;;;11.32;5.63;;;;;;;;;;5031253;28;20044;-67
2022/01/10 05:48:22;;;;;;;10.63;5.30;;;;;;;;;;5014191;28;20025;-67
2022/01/10 05:50:48;;;;;;;11.48;6.32;;;;;;;;;;5031379;28;20116;-66
2022/01/10 05:53:13;;;;;;;9.20;5.82;;;;;;;;;;5029156;28;20585;-66
2022/01/10 05:55:39;;;;;;;10.55;6.05;;;;;;;;;;5030098;28;20037;-66
2022/01/10 05:58:05;;;;;;;13.00;6.35;;;;;;;;;;5030829;28;20481;-66
2022/01/10 06:00:30;;;;;;;11.00;6.60;;;;;;;;;;5030194;28;20116;-65
2022/01/10 06:02:55;;;;;;;13.18;6.82;;;;;;;;;;5029784;28;20487;-66
2022/01/10 06:05:21;;;;;;;8.77;5.68;;;;;;;;;;5031050;28;20474;-66
2022/01/10 06:07:46;;;;;;;14.02;6.70;;;;;;;;;;5030463;28;20025;-66
2022/01/10 06:10:11;;;;;;;12.43;7.00;;;;;;;;;;5044618;28;20128;-66
2022/01/10 06:12:36;;;;;;;10.27;6.47;;;;;;;;;;5035945;28;20037;-66
2022/01/10 06:15:02;;;;;;;10.02;6.10;;;;;;;;;;5030661;28;20021;-66
2022/01/10 06:17:27;;;;;;;10.93;6.32;;;;;;;;;;5042669;28;20056;-66
2022/01/10 06:19:52;;;;;;;12.40;5.95;;;;;;;;;;5031094;28;20030;-66
2022/01/10 06:22:17;;;;;;;10.60;6.57;;;;;;;;;;5030329;28;20056;-66
2022/01/10 06:24:43;;;;;;;10.73;6.70;;;;;;;;;;5030958;28;20060;-66
2022/01/10 06:27:08;;;;;;;9.60;6.67;;;;;;;;;;5029850;28;20583;-66
2022/01/10 06:29:33;;;;;;;9.80;6.68;;;;;;;;;;5013638;28;20044;-66
2022/01/10 06:31:58;;;;;;;13.57;6.97;;;;;;;;;;5031769;28;20095;-66
2022/01/10 06:34:23;;;;;;;12.23;6.97;;;;;;;;;;5029901;28;20078;-65
2022/01/10 06:36:49;;;;;;;9.87;6.53;;;;;;;;;;5031551;28;20026;-66
2022/01/10 06:39:14;;;;;;;14.30;7.40;;;;;;;;;;5013145;28;20033;-65
2022/01/10 06:41:39;;;;;;;11.77;6.03;;;;;;;;;;5025673;28;20034;-66
2022/01/10 06:44:04;;;;;;;11.60;6.20;;;;;;;;;;5025860;28;20474;-65
2022/01/10 06:46:30;;;;;;;20.10;9.37;;;;;;;;;;5027944;28;20017;-66
2022/01/10 06:48:55;;;;;;;11.43;6.60;;;;;;;;;;5026633;28;20014;-65
2022/01/10 06:51:20;;;;;;;10.20;6.40;;;;;;;;;;5027790;28;20036;-65
2022/01/10 06:53:45;;;;;;;9.23;6.30;;;;;;;;;;5027605;28;20041;-66
2022/01/10 06:56:10;;;;;;;11.53;6.93;;;;;;;;;;5030468;28;20028;-66
2022/01/10 06:58:36;;;;;;;10.38;5.90;;;;;;;;;;5029016;28;20021;-66
2022/01/10 07:01:01;;;;;;;13.15;6.85;;;;;;;;;;5030212;28;20032;-66
2022/01/10 07:03:26;;;;;;;9.70;6.30;;;;;;;;;;5035118;28;20025;-66
2022/01/10 07:05:51;;;;;;;14.18;7.53;;;;;;;;;;5033046;28;20492;-66
2022/01/10 07:08:17;;;;;;;15.15;7.28;;;;;;;;;;5031711;28;20497;-66
2022/01/10 07:10:42;;;;;;;11.73;6.72;;;;;;;;;;5027342;28;20510;-66
2022/01/10 07:13:07;;;;;;;13.20;7.45;;;;;;;;;;5030959;28;20018;-67
2022/01/10 07:15:32;;;;;;;14.53;9.57;;;;;;;;;;5037545;28;20064;-66
2022/01/10 07:17:57;;;;;;;13.57;7.50;;;;;;;;;;5043357;28;20029;-66
2022/01/10 07:20:23;;;;;;;16.83;8.98;;;;;;;;;;5051547;28;20059;-66
2022/01/10 07:22:48;;;;;;;14.00;7.78;;;;;;;;;;5032415;28;20021;-66
2022/01/10 07:25:14;;;;;;;11.20;7.00;;;;;;;;;;5033296;28;20029;-66
2022/01/10 07:27:39;;;;;;;13.88;8.40;;;;;;;;;;5033805;28;20082;-66
2022/01/10 07:30:05;;;;;;;15.45;8.13;;;;;;;;;;5034815;28;20021;-66
2022/01/10 07:32:30;;;;;;;12.15;7.80;;;;;;;;;;5033186;28;20594;-67
2022/01/10 07:34:56;;;;;;;12.48;8.55;;;;;;;;;;5033171;28;20025;-67
2022/01/10 07:37:22;;;;;;;13.80;7.90;;;;;;;;;;5042517;28;20381;-67
2022/01/10 07:39:47;;;;;;;14.88;8.88;;;;;;;;;;5053697;28;20024;-78
2022/01/10 07:42:12;;;;;;;12.55;7.97;;;;;;;;;;5025265;28;20075;-73
2022/01/10 07:44:37;;;;;;;14.00;8.20;;;;;;;;;;5027542;28;20022;-72
2022/01/10 07:47:03;;;;;;;12.90;8.38;;;;;;;;;;5027735;28;20037;-73
2022/01/10 07:49:28;;;;;;;13.57;9.00;;;;;;;;;;5027629;28;20041;-73
2022/01/10 07:51:57;;;;;;;18.17;8.40;;;;;;;;;;5035679;28;20123;-74
2022/01/10 07:54:22;;;;;;;21.65;9.02;;;;;;;;;;5030266;28;20052;-72
2022/01/10 07:56:47;;;;;;;13.75;8.25;;;;;;;;;;5034300;28;20045;-68
2022/01/10 07:59:13;;;;;;;13.13;8.30;;;;;;;;;;5020149;28;20053;-72
2022/01/10 08:01:38;;;;;;;16.17;9.07;;;;;;;;;;5048448;28;20033;-71
2022/01/10 08:04:03;;;;;;;14.00;9.10;;;;;;;;;;5033941;28;20030;-69
2022/01/10 08:06:28;;;;;;;13.65;7.25;;;;;;;;;;5046025;28;20029;-69
2022/01/10 08:08:54;;;;;;;13.00;7.43;;;;;;;;;;5013208;28;20406;-69
2022/01/10 08:11:19;;;;;;;15.48;7.80;;;;;;;;;;5044846;28;20075;-68
2022/01/10 08:13:44;;;;;;;18.52;8.68;;;;;;;;;;5035570;28;20038;-71
2022/01/10 08:16:09;;;;;;;12.90;7.72;;;;;;;;;;5038254;28;20039;-70
2022/01/10 08:18:35;;;;;;;13.63;7.50;;;;;;;;;;5028380;28;20551;-69
2022/01/10 08:21:01;;;;;;;20.67;10.18;;;;;;;;;;5032365;28;20021;-69
2022/01/10 08:23:26;;;;;;;18.20;9.50;;;;;;;;;;5034593;28;20537;-69
2022/01/10 08:25:51;;;;;;;16.67;8.77;;;;;;;;;;5016156;28;20108;-69
2022/01/10 08:28:17;;;;;;;13.48;7.93;;;;;;;;;;5022968;28;20030;-69
2022/01/10 08:30:42;;;;;;;18.23;9.13;;;;;;;;;;5035336;28;20026;-69
2022/01/10 08:33:07;;;;;;;10.40;7.30;;;;;;;;;;5018350;28;20056;-69
2022/01/10 08:35:33;;;;;;;12.98;8.07;;;;;;;;;;5043499;28;20020;-69
2022/01/10 08:37:58;;;;;;;15.15;8.77;;;;;;;;;;5037801;28;20066;-69
2022/01/10 08:40:24;;;;;;;15.00;8.90;;;;;;;;;;5042565;28;20026;-69
2022/01/10 08:42:49;;;;;;;15.27;8.68;;;;;;;;;;5017111;28;20064;-68
2022/01/10 08:45:14;;;;;;;14.90;9.45;;;;;;;;;;5021251;28;20092;-68
2022/01/10 08:47:39;;;;;;;15.70;8.38;;;;;;;;;;5043503;28;20029;-69
2022/01/10 08:50:06;;;;;;;19.55;8.57;;;;;;;;;;5033892;28;20041;-69
2022/01/10 08:52:31;;;;;;;19.00;9.07;;;;;;;;;;5029893;28;20061;-68
2022/01/10 08:54:56;;;;;;;16.85;8.85;;;;;;;;;;5028771;28;20433;-68
2022/01/10 08:57:22;;;;;;;18.38;8.45;;;;;;;;;;5015341;28;20057;-69
2022/01/10 08:59:47;;;;;;;16.48;9.77;;;;;;;;;;5030922;28;20234;-69
2022/01/10 09:02:12;;;;;;;16.10;8.73;;;;;;;;;;5016045;28;20097;-69
2022/01/10 09:04:38;;;;;;;16.63;7.72;;;;;;;;;;5033394;28;20034;-69
2022/01/10 09:07:03;;;;;;;12.85;7.72;;;;;;;;;;5016234;28;20504;-69
2022/01/10 09:09:29;;;;;;;16.48;8.55;;;;;;;;;;5041317;28;20030;-69
2022/01/10 09:11:54;;;;;;;12.98;7.70;;;;;;;;;;5019819;28;20109;-69
2022/01/10 09:14:20;;;;;;;13.82;8.20;;;;;;;;;;5029365;28;20029;-69
2022/01/10 09:16:46;;;;;;;13.00;8.18;;;;;;;;;;5020069;28;20070;-69
2022/01/10 09:19:11;;;;;;;13.02;7.53;;;;;;;;;;5028501;28;20470;-69
2022/01/10 09:21:36;;;;;;;14.15;7.57;;;;;;;;;;5013178;28;20030;-69
2022/01/10 09:24:02;;;;;;;19.15;8.80;;;;;;;;;;5032004;28;20025;-69
2022/01/10 09:26:27;;;;;;;13.88;7.93;;;;;;;;;;5032137;28;20037;-69
2022/01/10 09:28:52;;;;;;;13.05;7.50;;;;;;;;;;5030698;28;20051;-69
2022/01/10 09:31:18;;;;;;;15.25;8.40;;;;;;;;;;5027420;28;20084;-69
2022/01/10 09:33:43;;;;;;;15.18;7.43;;;;;;;;;;5028673;28;20466;-67
2022/01/10 09:36:09;;;;;;;13.98;7.50;;;;;;;;;;5031740;28;20474;-69
2022/01/10 09:38:34;;;;;;;15.68;8.73;;;;;;;;;;5030761;28;20022;-69
2022/01/10 09:40:59;;;;;;;11.65;8.68;;;;;;;;;;5024947;28;20018;-69
2022/01/10 09:43:24;;;;;;;13.35;7.43;;;;;;;;;;5021985;28;20025;-69
2022/01/10 09:45:51;;;;;;;13.80;7.18;;;;;;;;;;5024993;28;20037;-70
2022/01/10 09:48:16;;;;;;;14.93;6.95;;;;;;;;;;5010485;28;20121;-70
2022/01/10 09:50:42;;;;;;;11.05;6.88;;;;;;;;;;5039687;28;20451;-68
2022/01/10 09:53:07;;;;;;;14.00;7.20;;;;;;;;;;5031595;28;20060;-69
2022/01/10 09:55:34;;;;;;;10.50;6.40;;;;;;;;;;5031838;28;20025;-71
2022/01/10 09:58:00;;;;;;;11.38;7.15;;;;;;;;;;5030286;28;20136;-71
2022/01/10 10:00:26;;;;;;;11.38;7.20;;;;;;;;;;5030533;28;20120;-69
2022/01/10 10:02:51;;;;;;;13.05;7.30;;;;;;;;;;5009731;28;20030;-69
2022/01/10 10:05:18;;;;;;;11.55;5.70;;;;;;;;;;5024108;28;20301;-71
2022/01/10 10:07:44;;;;;;;13.55;6.90;;;;;;;;;;5018909;28;20130;-71
2022/01/10 10:10:12;;;;;;;13.80;7.22;;;;;;;;;;5031201;28;20458;-70
2022/01/10 10:12:42;;;;;;;10.68;6.38;;;;;;;;;;5020381;28;20021;-72
2022/01/10 10:15:09;;;;;;;12.68;7.30;;;;;;;;;;5028211;28;20021;-72
2022/01/10 10:17:36;;;;;;;15.88;7.78;;;;;;;;;;5029383;28;21158;-72
2022/01/10 10:20:09;;;;;;;11.35;7.53;;;;;;;;;;5029557;28;20026;-72
2022/01/10 10:22:34;;;;;;;11.32;7.72;;;;;;;;;;5027244;28;20481;-72
2022/01/10 10:25:00;;;;;;;11.15;7.30;;;;;;;;;;5020359;28;20057;-70
2022/01/10 10:27:25;;;;;;;12.15;7.57;;;;;;;;;;5031377;28;20030;-71
2022/01/10 10:29:50;;;;;;;13.57;8.20;;;;;;;;;;5028303;28;20402;-71
2022/01/10 10:32:15;;;;;;;12.95;7.70;;;;;;;;;;5031008;28;20033;-71
2022/01/10 10:34:41;;;;;;;16.10;8.25;;;;;;;;;;5030600;28;20473;-71
2022/01/10 10:37:11;;;;;;;19.33;8.07;;;;;;;;;;5029896;28;20466;-71
2022/01/10 10:39:37;;;;;;;18.65;8.48;;;;;;;;;;5026299;28;20021;-78
2022/01/10 10:42:04;;;;;;;14.55;7.35;;;;;;;;;;5028819;28;20052;-72
2022/01/10 10:44:30;;;;;;;17.15;8.10;;;;;;;;;;5024995;28;20028;-69
2022/01/10 10:46:56;;;;;;;20.00;8.20;;;;;;;;;;5033764;28;20025;-68
2022/01/10 10:49:30;;;;;;;25.30;8.60;;;;;;;;;;5022421;28;20034;-75
2022/01/10 10:51:55;;;;;;;22.02;8.65;;;;;;;;;;5031531;28;20038;-68
2022/01/10 10:54:22;;;;;;;18.92;9.10;;;;;;;;;;5035428;28;20099;-67
2022/01/10 10:56:47;;;;;;;20.98;9.43;;;;;;;;;;5025312;28;20026;-73
2022/01/10 10:59:12;;;;;;;19.00;9.05;;;;;;;;;;5032929;28;20397;-71
2022/01/10 11:01:39;;;;;;;19.70;9.88;;;;;;;;;;5030570;28;20037;-69
2022/01/10 11:04:05;;;;;;;25.48;9.73;;;;;;;;;;5036438;28;20013;-70
2022/01/10 11:06:31;;;;;;;23.50;9.40;;;;;;;;;;5033443;28;20413;-63
2022/01/10 11:08:57;;;;;;;23.00;9.82;;;;;;;;;;5064273;28;20112;-66
2022/01/10 11:11:23;;;;;;;24.48;10.52;;;;;;;;;;5041125;28;20021;-68
2022/01/10 11:13:49;;;;;;;32.75;11.32;;;;;;;;;;5034771;28;20108;-68
2022/01/10 11:16:15;;;;;;;25.25;10.05;;;;;;;;;;5033546;28;20151;-68
2022/01/10 11:18:40;;;;;;;21.02;11.80;;;;;;;;;;5027958;28;20042;-67
2022/01/10 11:21:06;;;;;;;25.25;11.45;;;;;;;;;;5049384;28;20025;-67
2022/01/10 11:23:31;;;;;;;27.25;11.75;;;;;;;;;;5023909;28;20029;-73
2022/01/10 11:25:57;;;;;;;34.67;13.30;;;;;;;;;;5033640;28;20049;-66
2022/01/10 11:28:23;;;;;;;28.45;13.02;;;;;;;;;;5033300;28;20017;-67
2022/01/10 11:30:51;;;;;;;34.40;13.20;;;;;;;;;;5034853;28;20045;-67
2022/01/10 11:33:21;;;;;;;25.73;13.38;;;;;;;;;;5031020;28;20181;-67
2022/01/10 11:35:51;;;;;;;24.73;12.52;;;;;;;;;;5028113;28;20104;-67
2022/01/10 11:38:16;;;;;;;25.52;12.18;;;;;;;;;;5015160;28;20044;-67
2022/01/10 11:40:42;;;;;;;31.17;13.73;;;;;;;;;;5028659;28;20458;-66
2022/01/10 11:43:08;;;;;;;27.55;13.32;;;;;;;;;;5014059;28;20018;-67
2022/01/10 11:45:40;;;;;;;26.58;12.38;;;;;;;;;;5014313;28;20025;-66
2022/01/10 11:48:11;;;;;;;29.08;12.77;;;;;;;;;;5024501;28;20048;-67
2022/01/10 11:50:40;;;;;;;27.13;13.68;;;;;;;;;;5038184;28;20080;-66
2022/01/10 11:53:05;;;;;;;27.95;14.38;;;;;;;;;;5014886;28;20085;-65
2022/01/10 11:55:53;;;;;;;26.08;13.70;;;;;;;;;;5012470;28;20561;-66
2022/01/10 11:58:20;;;;;;;24.55;13.07;;;;;;;;;;5029956;28;20033;-67
2022/01/10 12:00:46;;;;;;;28.60;13.52;;;;;;;;;;5021264;28;20061;-67
2022/01/10 12:03:11;;;;;;;23.90;14.90;;;;;;;;;;5032471;28;20065;-66
2022/01/10 12:05:36;;;;;;;25.20;13.68;;;;;;;;;;5032209;28;20013;-66
2022/01/10 12:08:03;;;;;;;30.23;14.73;;;;;;;;;;5028374;28;20022;-66
2022/01/10 12:10:29;;;;;;;31.23;15.40;;;;;;;;;;5043902;28;20464;-66
2022/01/10 12:13:05;;;;;;;30.35;14.88;;;;;;;;;;5032045;28;20108;-66
2022/01/10 12:15:32;;;;;;;32.80;15.27;;;;;;;;;;5032417;28;20116;-67
2022/01/10 12:17:57;;;;;;;35.30;15.50;;;;;;;;;;5038984;28;20462;-66
2022/01/10 12:20:22;;;;;;;34.85;15.52;;;;;;;;;;5023071;28;20022;-66
2022/01/10 12:22:47;;;;;;;32.95;17.48;;;;;;;;;;5033372;28;20064;-66
2022/01/10 12:25:13;;;;;;;33.28;18.15;;;;;;;;;;5016224;28;20040;-66
2022/01/10 12:27:38;;;;;;;30.73;17.17;;;;;;;;;;5034281;28;20033;-66
2022/01/10 12:30:04;;;;;;;29.08;16.00;;;;;;;;;;5033677;28;20405;-66
2022/01/10 12:32:32;;;;;;;27.17;15.77;;;;;;;;;;5015782;28;20379;-66
2022/01/10 12:34:57;;;;;;;24.05;15.43;;;;;;;;;;5033358;28;20363;-65
2022/01/10 12:37:25;;;;;;;24.17;16.35;;;;;;;;;;5034036;28;20108;-66
2022/01/10 12:39:50;;;;;;;20.83;13.35;;;;;;;;;;5024011;28;20026;-66
2022/01/10 12:42:15;;;;;;;22.70;13.48;;;;;;;;;;5026600;28;20017;-65
2022/01/10 12:44:41;;;;;;;19.52;14.13;;;;;;;;;;5030261;28;20036;-66
2022/01/10 12:47:06;;;;;;;21.17;12.68;;;;;;;;;;5043474;28;20478;-65
2022/01/10 12:49:34;;;;;;;22.15;13.75;;;;;;;;;;5034499;28;20029;-65
2022/01/10 12:51:59;;;;;;;21.33;12.40;;;;;;;;;;5051861;28;20076;-66
2022/01/10 12:54:29;;;;;;;17.20;12.38;;;;;;;;;;5043005;28;20036;-65
2022/01/10 12:56:55;;;;;;;19.10;12.52;;;;;;;;;;5033334;28;20018;-68
2022/01/10 12:59:21;;;;;;;21.90;12.68;;;;;;;;;;5044257;28;20028;-67
2022/01/10 13:01:47;;;;;;;19.00;13.27;;;;;;;;;;5031514;28;20017;-68
2022/01/10 13:04:13;;;;;;;21.77;13.57;;;;;;;;;;5032355;28;20071;-68
2022/01/10 13:06:41;;;;;;;24.02;14.70;;;;;;;;;;5032610;28;20040;-68
2022/01/10 13:09:08;;;;;;;24.00;13.38;;;;;;;;;;5032408;28;20144;-68
2022/01/10 13:11:42;;;;;;;26.73;14.88;;;;;;;;;;5028546;28;20029;-67
2022/01/10 13:14:08;;;;;;;25.42;15.40;;;;;;;;;;5031543;28;20025;-68
2022/01/10 13:16:33;;;;;;;32.88;16.15;;;;;;;;;;5031262;28;20501;-68
2022/01/10 13:19:00;;;;;;;26.38;15.65;;;;;;;;;;5031245;28;20100;-69
2022/01/10 13:21:26;;;;;;;28.17;16.45;;;;;;;;;;5032831;28;20018;-69
2022/01/10 13:24:04;;;;;;;30.05;15.82;;;;;;;;;;5031523;28;20114;-69
2022/01/10 13:26:29;;;;;;;29.80;15.63;;;;;;;;;;5030978;28;20072;-69
2022/01/10 13:28:55;;;;;;;34.53;15.82;;;;;;;;;;5031634;28;20532;-69
2022/01/10 13:31:20;;;;;;;26.95;14.98;;;;;;;;;;5030239;28;20053;-69
2022/01/10 13:33:46;;;;;;;31.63;16.15;;;;;;;;;;5030502;28;20029;-68
2022/01/10 13:36:11;;;;;;;33.88;16.00;;;;;;;;;;5031957;28;20105;-70
2022/01/10 13:38:36;;;;;;;29.00;15.57;;;;;;;;;;5032544;28;20045;-70
2022/01/10 13:41:08;;;;;;;28.52;15.63;;;;;;;;;;5026412;28;20470;-70
2022/01/10 13:43:33;;;;;;;24.73;14.57;;;;;;;;;;5030211;28;20457;-69
2022/01/10 13:46:03;;;;;;;25.42;14.50;;;;;;;;;;5030272;28;20025;-69
2022/01/10 13:48:31;;;;;;;24.48;14.77;;;;;;;;;;5031906;28;20063;-69
2022/01/10 13:51:00;;;;;;;28.38;15.00;;;;;;;;;;5032219;28;20025;-68
2022/01/10 13:53:29;;;;;;;31.83;15.30;;;;;;;;;;5032469;28;20565;-69
2022/01/10 13:56:04;;;;;;;26.08;14.38;;;;;;;;;;5021774;28;20099;-69
2022/01/10 13:58:30;;;;;;;28.63;13.98;;;;;;;;;;5031258;28;20057;-69
2022/01/10 14:00:56;;;;;;;25.05;14.05;;;;;;;;;;5030881;28;20057;-69
2022/01/10 14:03:27;;;;;;;29.27;14.90;;;;;;;;;;5029827;28;20028;-68
2022/01/10 14:06:11;;;;;;;24.15;13.30;;;;;;;;;;5047047;28;20135;-69
2022/01/10 14:08:38;;;;;;;26.00;13.30;;;;;;;;;;5033812;28;20071;-69
2022/01/10 14:11:05;;;;;;;22.63;13.23;;;;;;;;;;5027149;28;20434;-69
2022/01/10 14:13:30;;;;;;;22.65;12.63;;;;;;;;;;5032952;28;20035;-69
2022/01/10 14:15:56;;;;;;;21.17;11.98;;;;;;;;;;5031396;28;20079;-69
2022/01/10 14:18:22;;;;;;;22.02;12.60;;;;;;;;;;5020205;28;20325;-69
2022/01/10 14:20:47;;;;;;;22.00;12.57;;;;;;;;;;5025398;28;20048;-69
2022/01/10 14:23:12;;;;;;;30.42;13.68;;;;;;;;;;5028726;28;20072;-69
2022/01/10 14:25:37;;;;;;;27.20;13.57;;;;;;;;;;5031353;28;20107;-69
2022/01/10 14:28:03;;;;;;;22.65;13.00;;;;;;;;;;5036009;28;20152;-69